createdAt,value
2023-03-24T00:02:29.068Z,3.97
2023-03-24T00:05:18.963Z,3.80
2023-03-24T00:08:06.573Z,3.80
2023-03-24T00:10:53.337Z,3.50
2023-03-24T00:13:40.950Z,3.27
2023-03-24T00:16:27.885Z,4.00
2023-03-24T00:19:16.327Z,3.70
2023-03-24T00:22:02.819Z,3.53
2023-03-24T00:24:49.731Z,4.20
2023-03-24T00:27:37.298Z,3.23
2023-03-24T00:30:25.425Z,3.53
2023-03-24T00:33:13.531Z,3.67
2023-03-24T00:36:02.787Z,3.30
2023-03-24T00:38:52.432Z,3.40
2023-03-24T00:41:48.344Z,3.60
2023-03-24T00:44:58.123Z,3.43
2023-03-24T00:47:46.477Z,3.30
2023-03-24T00:50:35.409Z,3.50
2023-03-24T00:53:26.326Z,3.10
2023-03-24T00:56:17.758Z,4.30
2023-03-24T00:59:06.885Z,3.60
2023-03-24T01:01:53.412Z,3.77
2023-03-24T01:04:42.341Z,3.17
2023-03-24T01:07:31.239Z,3.27
2023-03-24T01:10:21.712Z,3.40
2023-03-24T01:13:08.367Z,3.50
2023-03-24T01:15:57.499Z,3.63
2023-03-24T01:18:44.522Z,3.73
2023-03-24T01:21:31.973Z,3.70
2023-03-24T01:24:20.253Z,3.10
2023-03-24T01:27:15.047Z,3.20
2023-03-24T01:30:04.873Z,3.00
2023-03-24T01:32:53.850Z,3.07
2023-03-24T01:35:42.555Z,3.83
2023-03-24T01:38:31.014Z,3.00
2023-03-24T01:41:21.258Z,3.00
2023-03-24T01:44:35.168Z,3.07
2023-03-24T01:47:23.414Z,2.77
2023-03-24T01:50:10.780Z,2.87
2023-03-24T01:52:57.614Z,3.20
2023-03-24T01:55:46.638Z,2.70
2023-03-24T01:58:37.833Z,2.60
2023-03-24T02:01:37.115Z,2.80
2023-03-24T02:04:39.826Z,2.83
2023-03-24T02:07:34.580Z,3.13
2023-03-24T02:10:23.141Z,2.90
2023-03-24T02:13:10.411Z,2.70
2023-03-24T02:16:12.700Z,2.80
2023-03-24T02:19:25.136Z,2.90
2023-03-24T02:22:44.341Z,3.10
2023-03-24T02:25:51.770Z,2.80
2023-03-24T02:28:48.588Z,2.73
2023-03-24T02:31:59.045Z,2.57
2023-03-24T02:35:23.343Z,2.67
2023-03-24T02:38:39.276Z,2.87
2023-03-24T02:41:34.618Z,2.57
2023-03-24T02:44:27.041Z,2.90
2023-03-24T02:47:21.417Z,2.40
2023-03-24T02:50:14.842Z,2.57
2023-03-24T02:53:10.275Z,2.60
2023-03-24T02:56:13.942Z,2.93
2023-03-24T02:59:05.922Z,2.50
2023-03-24T03:02:00.853Z,2.40
2023-03-24T03:05:06.160Z,2.83
2023-03-24T03:07:56.940Z,2.53
2023-03-24T03:10:47.695Z,3.13
2023-03-24T03:13:38.163Z,3.03
2023-03-24T03:16:38.362Z,2.40
2023-03-24T03:19:31.754Z,2.57
2023-03-24T03:22:22.131Z,3.00
2023-03-24T03:25:10.883Z,2.87
2023-03-24T03:28:01.175Z,3.00
2023-03-24T03:30:52.523Z,2.87
2023-03-24T03:33:49.292Z,2.97
2023-03-24T03:36:42.163Z,2.93
2023-03-24T03:39:32.156Z,2.57
2023-03-24T03:42:22.118Z,2.43
2023-03-24T03:45:11.148Z,3.40
2023-03-24T03:47:58.157Z,2.70
2023-03-24T03:50:47.151Z,2.90
2023-03-24T03:53:40.492Z,2.83
2023-03-24T03:56:29.752Z,3.13
2023-03-24T03:59:45.806Z,2.70
2023-03-24T04:02:53.564Z,2.73
2023-03-24T04:05:46.378Z,2.70
2023-03-24T04:08:49.069Z,2.80
2023-03-24T04:12:02.119Z,3.00
2023-03-24T04:15:12.585Z,3.17
2023-03-24T04:18:31.729Z,2.93
2023-03-24T04:21:38.562Z,3.03
2023-03-24T04:24:40.285Z,3.13
2023-03-24T04:27:40.124Z,3.17
2023-03-24T04:30:34.260Z,2.97
2023-03-24T04:33:30.392Z,3.67
2023-03-24T04:36:23.576Z,2.77
2023-03-24T04:39:39.187Z,3.43
2023-03-24T04:42:37.090Z,3.37
2023-03-24T04:45:25.857Z,3.00
2023-03-24T04:48:26.563Z,3.40
2023-03-24T04:51:34.218Z,3.40
2023-03-24T04:54:25.836Z,3.03
2023-03-24T04:57:20.016Z,3.40
2023-03-24T05:00:12.848Z,3.63
2023-03-24T05:03:00.707Z,3.77
2023-03-24T05:05:49.737Z,3.53
2023-03-24T05:08:36.259Z,3.10
2023-03-24T05:11:23.071Z,3.60
2023-03-24T05:14:21.392Z,3.77
2023-03-24T05:17:08.890Z,3.70
2023-03-24T05:19:55.528Z,3.43
2023-03-24T05:22:42.544Z,3.67
2023-03-24T05:25:29.837Z,3.23
2023-03-24T05:28:16.841Z,3.47
2023-03-24T05:31:05.612Z,3.63
2023-03-24T05:34:05.308Z,3.73
2023-03-24T05:36:58.220Z,3.90
2023-03-24T05:39:45.382Z,3.80
2023-03-24T05:42:49.885Z,3.80
2023-03-24T05:45:36.982Z,3.47
2023-03-24T05:48:26.018Z,3.57
2023-03-24T05:51:27.481Z,3.27
2023-03-24T05:54:22.397Z,3.90
2023-03-24T05:57:14.302Z,4.07
2023-03-24T06:00:18.564Z,3.77
2023-03-24T06:03:14.160Z,3.67
2023-03-24T06:06:08.152Z,3.90
2023-03-24T06:08:55.465Z,4.30
2023-03-24T06:11:44.730Z,3.47
2023-03-24T06:14:31.704Z,3.80
2023-03-24T06:17:28.745Z,3.90
2023-03-24T06:20:18.530Z,3.70
2023-03-24T06:23:17.564Z,4.27
2023-03-24T06:26:23.022Z,3.90
2023-03-24T06:29:18.018Z,3.77
2023-03-24T06:32:06.750Z,4.17
2023-03-24T06:35:00.175Z,3.63
2023-03-24T06:38:07.563Z,4.10
2023-03-24T06:41:01.311Z,4.00
2023-03-24T06:43:48.371Z,3.33
2023-03-24T06:46:35.279Z,3.90
2023-03-24T06:49:22.157Z,3.77
2023-03-24T06:52:09.156Z,3.70
2023-03-24T06:54:59.513Z,3.47
2023-03-24T06:57:49.105Z,3.57
2023-03-24T07:00:56.033Z,3.10
2023-03-24T07:03:46.279Z,4.17
2023-03-24T07:06:43.147Z,4.20
2023-03-24T07:09:38.975Z,4.43
2023-03-24T07:12:25.839Z,4.17
2023-03-24T07:15:14.240Z,4.30
2023-03-24T07:18:02.159Z,3.77
2023-03-24T07:20:55.509Z,3.57
2023-03-24T07:23:42.939Z,3.57
2023-03-24T07:26:32.873Z,3.97
2023-03-24T07:29:32.157Z,4.10
2023-03-24T07:32:39.707Z,3.93
2023-03-24T07:35:27.202Z,4.03
2023-03-24T07:38:14.188Z,2.87
2023-03-24T07:41:01.122Z,4.03
2023-03-24T07:43:51.743Z,3.73
2023-03-24T07:46:44.608Z,3.63
2023-03-24T07:49:32.885Z,2.77
2023-03-24T07:52:26.317Z,3.17
2023-03-24T07:55:15.846Z,3.73
2023-03-24T07:58:25.632Z,3.37
2023-03-24T08:01:32.938Z,3.70
2023-03-24T08:04:22.798Z,3.07
2023-03-24T08:07:20.161Z,3.53
2023-03-24T08:10:08.044Z,3.50
2023-03-24T08:12:55.082Z,3.57
2023-03-24T08:15:41.525Z,3.37
2023-03-24T08:18:28.429Z,3.57
2023-03-24T08:21:15.686Z,3.77
2023-03-24T08:24:03.865Z,3.67
2023-03-24T08:26:53.036Z,3.67
2023-03-24T08:29:40.415Z,3.70
2023-03-24T08:32:33.180Z,3.43
2023-03-24T08:35:22.600Z,4.07
2023-03-24T08:38:11.751Z,3.53
2023-03-24T08:41:02.804Z,3.87
2023-03-24T08:43:49.788Z,3.53
2023-03-24T08:46:36.368Z,3.70
2023-03-24T08:49:23.188Z,3.20
2023-03-24T08:52:10.034Z,3.23
2023-03-24T08:54:56.900Z,3.70
2023-03-24T08:57:45.851Z,3.57
2023-03-24T09:00:33.509Z,3.60
2023-03-24T09:03:24.138Z,3.70
2023-03-24T09:06:10.881Z,3.13
2023-03-24T09:08:57.878Z,3.13
2023-03-24T09:11:44.733Z,3.03
2023-03-24T09:14:32.935Z,3.23
2023-03-24T09:17:20.039Z,2.90
2023-03-24T09:20:08.551Z,3.40
2023-03-24T09:22:55.965Z,3.17
2023-03-24T09:25:42.882Z,3.07
2023-03-24T09:28:29.846Z,3.37
2023-03-24T09:31:18.070Z,3.30
2023-03-24T09:34:05.090Z,2.83
2023-03-24T09:36:51.618Z,3.43
2023-03-24T09:39:38.463Z,3.13
2023-03-24T09:42:27.878Z,3.40
2023-03-24T09:45:19.441Z,3.40
2023-03-24T09:48:13.841Z,3.50
2023-03-24T09:51:06.006Z,3.10
2023-03-24T09:54:02.125Z,3.63
2023-03-24T09:56:51.740Z,3.20
2023-03-24T09:59:41.088Z,3.30
2023-03-24T10:02:30.447Z,3.50
2023-03-24T10:05:22.091Z,3.40
2023-03-24T10:08:16.949Z,3.00
2023-03-24T10:11:06.012Z,3.03
2023-03-24T10:14:05.895Z,3.10
2023-03-24T10:17:00.475Z,3.23
2023-03-24T10:19:59.316Z,3.03
2023-03-24T10:22:56.229Z,2.80
2023-03-24T10:25:51.280Z,2.10
2023-03-24T10:28:45.627Z,2.77
2023-03-24T10:31:34.583Z,2.73
2023-03-24T10:34:33.012Z,2.93
2023-03-24T10:37:20.757Z,2.80
2023-03-24T10:40:18.111Z,3.43
2023-03-24T10:43:09.747Z,2.33
2023-03-24T10:45:59.294Z,2.73
2023-03-24T10:48:47.750Z,2.70
2023-03-24T10:51:35.595Z,2.63
2023-03-24T10:54:23.932Z,1.80
2023-03-24T10:57:19.292Z,2.50
2023-03-24T11:00:13.272Z,2.17
2023-03-24T11:03:02.670Z,2.67
2023-03-24T11:05:49.801Z,1.50
2023-03-24T11:08:38.581Z,2.43
2023-03-24T11:11:32.134Z,1.50
2023-03-24T11:14:25.649Z,2.47
2023-03-24T11:17:15.367Z,1.87
2023-03-24T11:20:02.073Z,1.93
2023-03-24T11:23:04.954Z,2.10
2023-03-24T11:26:03.239Z,2.30
2023-03-24T11:28:53.917Z,2.40
2023-03-24T11:31:42.652Z,2.03
2023-03-24T11:34:34.232Z,1.83
2023-03-24T11:37:23.855Z,2.17
2023-03-24T11:40:24.580Z,2.03
2023-03-24T11:43:21.937Z,2.17
2023-03-24T11:46:14.187Z,2.10
2023-03-24T11:49:02.509Z,1.97
2023-03-24T11:51:53.070Z,1.93
2023-03-24T11:54:40.183Z,1.73
2023-03-24T11:57:47.697Z,1.77
2023-03-24T12:00:39.397Z,1.50
2023-03-24T12:04:00.097Z,1.77
2023-03-24T12:07:01.424Z,1.90
2023-03-24T12:09:57.529Z,1.50
2023-03-24T12:12:52.930Z,1.70
2023-03-24T12:15:54.695Z,1.70
2023-03-24T12:19:06.835Z,1.20
2023-03-24T12:22:07.726Z,1.37
2023-03-24T12:25:09.963Z,1.30
2023-03-24T12:28:08.411Z,1.60
2023-03-24T12:31:06.295Z,1.27
2023-03-24T12:34:04.427Z,1.20
2023-03-24T12:37:01.865Z,1.30
2023-03-24T12:39:58.500Z,1.30
2023-03-24T12:42:46.569Z,1.20
2023-03-24T12:45:42.881Z,1.23
2023-03-24T12:49:00.025Z,1.10
2023-03-24T12:51:55.163Z,1.07
2023-03-24T12:54:53.259Z,1.13
2023-03-24T12:57:47.189Z,1.10
2023-03-24T13:00:37.786Z,1.10
2023-03-24T13:03:31.312Z,1.50
2023-03-24T13:06:24.674Z,1.30
2023-03-24T13:09:20.293Z,1.10
2023-03-24T13:12:14.569Z,1.20
2023-03-24T13:15:08.330Z,1.20
2023-03-24T13:18:06.319Z,1.10
2023-03-24T13:20:57.417Z,1.00
2023-03-24T13:23:51.778Z,1.20
2023-03-24T13:26:40.490Z,1.10
2023-03-24T13:29:49.863Z,0.90
2023-03-24T13:32:42.782Z,1.13
2023-03-24T13:35:42.325Z,1.10
2023-03-24T13:38:36.945Z,0.90
2023-03-24T13:41:27.225Z,1.00
2023-03-24T13:44:20.447Z,1.00
2023-03-24T13:47:13.205Z,0.97
2023-03-24T13:50:02.575Z,1.00
2023-03-24T13:52:51.194Z,1.00
2023-03-24T13:55:41.012Z,1.30
2023-03-24T13:58:45.166Z,1.00
2023-03-24T14:01:34.977Z,1.13
2023-03-24T14:04:29.815Z,0.80
2023-03-24T14:07:33.229Z,1.03
2023-03-24T14:10:41.670Z,1.07
2023-03-24T14:13:48.808Z,1.00
2023-03-24T14:16:44.087Z,1.10
2023-03-24T14:19:39.080Z,1.47
2023-03-24T14:22:30.963Z,0.80
2023-03-24T14:25:25.941Z,1.20
2023-03-24T14:28:22.559Z,1.30
2023-03-24T14:31:18.601Z,0.93
2023-03-24T14:34:10.963Z,1.10
2023-03-24T14:37:03.788Z,1.20
2023-03-24T14:39:52.211Z,1.10
2023-03-24T14:43:03.239Z,0.93
2023-03-24T14:45:58.466Z,1.40
2023-03-24T14:48:56.771Z,1.10
2023-03-24T14:51:48.142Z,1.20
2023-03-24T14:54:42.158Z,1.33
2023-03-24T14:57:30.778Z,1.20
2023-03-24T15:00:22.265Z,1.07
2023-03-24T15:03:20.021Z,1.00
2023-03-24T15:06:14.877Z,1.10
2023-03-24T15:09:06.724Z,1.10
2023-03-24T15:11:54.911Z,1.10
2023-03-24T15:14:41.333Z,1.10
2023-03-24T15:17:28.306Z,1.17
2023-03-24T15:20:27.624Z,1.00
2023-03-24T15:23:19.236Z,1.23
2023-03-24T15:26:13.598Z,1.13
2023-03-24T15:29:04.034Z,1.50
2023-03-24T15:31:51.387Z,1.10
2023-03-24T15:34:42.055Z,1.43
2023-03-24T15:37:35.613Z,1.30
2023-03-24T15:40:36.478Z,1.80
2023-03-24T15:43:23.351Z,1.30
2023-03-24T15:46:24.738Z,1.30
2023-03-24T15:49:22.632Z,1.13
2023-03-24T15:52:25.542Z,1.30
2023-03-24T15:55:25.130Z,1.53
2023-03-24T15:58:24.356Z,1.80
2023-03-24T16:01:14.253Z,1.57
2023-03-24T16:04:03.511Z,1.50
2023-03-24T16:06:53.841Z,1.47
2023-03-24T16:09:41.151Z,1.40
2023-03-24T16:12:27.559Z,1.50
2023-03-24T16:15:14.596Z,1.33
2023-03-24T16:18:01.302Z,1.53
2023-03-24T16:20:51.862Z,1.40
2023-03-24T16:23:38.440Z,1.40
2023-03-24T16:26:27.090Z,1.80
2023-03-24T16:29:17.310Z,1.33
2023-03-24T16:32:04.197Z,1.40
2023-03-24T16:34:51.082Z,1.97
2023-03-24T16:37:39.293Z,1.33
2023-03-24T16:40:32.220Z,1.67
2023-03-24T16:43:19.787Z,1.47
2023-03-24T16:46:07.232Z,1.83
2023-03-24T16:48:54.665Z,1.63
2023-03-24T16:51:41.776Z,1.70
2023-03-24T16:54:30.102Z,1.57
2023-03-24T16:57:16.883Z,1.60
2023-03-24T17:00:11.039Z,1.50
2023-03-24T17:02:59.786Z,1.40
2023-03-24T17:05:48.623Z,1.70
2023-03-24T17:08:35.515Z,2.07
2023-03-24T17:11:28.322Z,1.77
2023-03-24T17:14:15.556Z,1.60
2023-03-24T17:17:04.475Z,2.57
2023-03-24T17:19:51.849Z,1.60
2023-03-24T17:22:38.714Z,1.70
2023-03-24T17:25:29.295Z,1.80
2023-03-24T17:28:17.928Z,1.60
2023-03-24T17:31:04.915Z,1.20
2023-03-24T17:33:51.552Z,1.80
2023-03-24T17:36:38.277Z,1.60
2023-03-24T17:39:25.269Z,1.93
2023-03-24T17:42:12.044Z,1.77
2023-03-24T17:45:00.160Z,1.70
2023-03-24T17:47:47.558Z,1.70
2023-03-24T17:50:34.578Z,2.00
2023-03-24T17:53:25.708Z,2.00
2023-03-24T17:56:12.712Z,1.63
2023-03-24T17:58:59.794Z,1.60
2023-03-24T18:01:48.101Z,1.50
2023-03-24T18:04:35.389Z,1.83
2023-03-24T18:07:23.150Z,2.03
2023-03-24T18:10:10.898Z,2.07
2023-03-24T18:12:57.705Z,1.87
2023-03-24T18:15:44.691Z,2.07
2023-03-24T18:18:32.843Z,2.00
2023-03-24T18:21:21.180Z,1.80
2023-03-24T18:24:08.919Z,2.57
2023-03-24T18:26:55.757Z,1.87
2023-03-24T18:29:42.462Z,1.97
2023-03-24T18:32:29.334Z,2.30
2023-03-24T18:35:17.565Z,1.80
2023-03-24T18:38:04.341Z,2.20
2023-03-24T18:40:58.823Z,1.87
2023-03-24T18:43:47.880Z,2.27
2023-03-24T18:46:35.536Z,2.20
2023-03-24T18:49:22.056Z,2.40
2023-03-24T18:52:10.307Z,2.00
2023-03-24T18:54:57.183Z,2.20
2023-03-24T18:57:44.134Z,1.90
2023-03-24T19:00:31.052Z,2.07
2023-03-24T19:03:18.638Z,2.27
2023-03-24T19:06:07.417Z,2.23
2023-03-24T19:08:55.321Z,2.37
2023-03-24T19:11:43.531Z,2.43
2023-03-24T19:14:30.163Z,2.20
2023-03-24T19:17:16.944Z,2.20
2023-03-24T19:20:07.639Z,2.10
2023-03-24T19:23:01.208Z,2.70
2023-03-24T19:25:50.253Z,2.50
2023-03-24T19:28:37.696Z,2.20
2023-03-24T19:31:24.263Z,2.50
2023-03-24T19:34:11.054Z,2.23
2023-03-24T19:36:58.376Z,1.87
2023-03-24T19:39:46.269Z,1.90
2023-03-24T19:42:34.219Z,2.47
2023-03-24T19:45:21.751Z,1.83
2023-03-24T19:48:08.475Z,2.00
2023-03-24T19:50:56.353Z,2.07
2023-03-24T19:53:42.868Z,2.53
2023-03-24T19:56:29.611Z,2.03
2023-03-24T19:59:17.638Z,2.00
2023-03-24T20:02:04.275Z,2.33
2023-03-24T20:04:52.068Z,2.53
2023-03-24T20:07:38.617Z,1.80
2023-03-24T20:10:26.227Z,1.80
2023-03-24T20:13:12.857Z,2.33
2023-03-24T20:16:01.902Z,2.37
2023-03-24T20:18:48.643Z,2.30
2023-03-24T20:21:35.417Z,1.97
2023-03-24T20:24:22.445Z,1.97
2023-03-24T20:27:09.417Z,1.63
2023-03-24T20:29:56.030Z,2.50
2023-03-24T20:32:44.433Z,2.43
2023-03-24T20:35:48.068Z,2.30
2023-03-24T20:38:35.096Z,1.97
2023-03-24T20:41:22.079Z,1.80
2023-03-24T20:44:09.567Z,2.20
2023-03-24T20:46:57.265Z,1.97
2023-03-24T20:49:45.564Z,2.10
2023-03-24T20:52:32.796Z,2.13
2023-03-24T20:55:19.491Z,1.90
2023-03-24T20:58:08.315Z,2.20
2023-03-24T21:00:55.439Z,1.90
2023-03-24T21:03:42.094Z,1.80
2023-03-24T21:06:33.814Z,2.13
2023-03-24T21:09:23.053Z,1.93
2023-03-24T21:12:13.010Z,2.23
2023-03-24T21:15:05.748Z,2.40
2023-03-24T21:17:53.438Z,2.60
2023-03-24T21:20:42.432Z,2.00
2023-03-24T21:23:34.376Z,1.80
2023-03-24T21:26:21.326Z,1.90
2023-03-24T21:29:08.182Z,2.00
2023-03-24T21:31:55.135Z,2.07
2023-03-24T21:34:42.871Z,1.90
2023-03-24T21:37:30.234Z,2.10
2023-03-24T21:40:20.284Z,2.30
2023-03-24T21:43:06.795Z,2.10
2023-03-24T21:45:54.905Z,2.20
2023-03-24T21:48:51.472Z,2.40
2023-03-24T21:51:38.331Z,2.17
2023-03-24T21:54:26.886Z,2.53
2023-03-24T21:57:15.157Z,2.10
2023-03-24T22:00:09.840Z,2.40
2023-03-24T22:03:02.376Z,2.30
2023-03-24T22:05:49.814Z,2.07
2023-03-24T22:08:36.607Z,2.40
2023-03-24T22:11:24.994Z,2.30
2023-03-24T22:14:13.157Z,2.30
2023-03-24T22:17:01.781Z,1.90
2023-03-24T22:19:48.344Z,2.27
2023-03-24T22:22:42.867Z,2.23
2023-03-24T22:25:30.788Z,1.80
2023-03-24T22:28:19.039Z,2.00
2023-03-24T22:31:09.030Z,1.97
2023-03-24T22:33:56.385Z,1.97
2023-03-24T22:36:43.394Z,1.80
2023-03-24T22:39:30.398Z,2.00
2023-03-24T22:42:17.366Z,2.10
2023-03-24T22:45:04.221Z,2.20
2023-03-24T22:47:56.469Z,1.90
2023-03-24T22:50:43.139Z,2.30
2023-03-24T22:53:29.801Z,2.07
2023-03-24T22:56:17.013Z,2.33
2023-03-24T22:59:04.169Z,2.27
2023-03-24T23:02:02.430Z,2.07
2023-03-24T23:04:56.619Z,2.33
2023-03-24T23:07:44.189Z,2.20
2023-03-24T23:10:30.803Z,2.20
2023-03-24T23:13:17.907Z,2.57
2023-03-24T23:16:04.655Z,2.10
2023-03-24T23:18:51.752Z,2.13
2023-03-24T23:21:39.792Z,2.27
2023-03-24T23:24:26.736Z,2.60
2023-03-24T23:27:13.196Z,2.37
2023-03-24T23:29:59.908Z,2.40
2023-03-24T23:32:47.336Z,2.53
2023-03-24T23:35:34.283Z,3.17
2023-03-24T23:38:22.469Z,2.57
2023-03-24T23:41:09.846Z,2.37
2023-03-24T23:43:56.510Z,2.80
2023-03-24T23:46:43.342Z,2.87
2023-03-24T23:49:30.023Z,2.80
2023-03-24T23:52:17.098Z,3.50
2023-03-24T23:55:05.804Z,3.20
2023-03-24T23:57:52.595Z,2.93
